sensor_id;sensor_type;location;lat;lon;timestamp;P1;durP1;ratioP1;P2;durP2;ratioP2
10643;SDS011;5370;50.132;8.626;2024-01-30T00:01:21;35.70;;;24.87;;
10643;SDS011;5370;50.132;8.626;2024-01-30T00:03:47;35.37;;;26.13;;
10643;SDS011;5370;50.132;8.626;2024-01-30T00:06:12;53.37;;;36.63;;
10643;SDS011;5370;50.132;8.626;2024-01-30T00:08:38;34.20;;;24.40;;
10643;SDS011;5370;50.132;8.626;2024-01-30T00:11:03;38.43;;;25.40;;
10643;SDS011;5370;50.132;8.626;2024-01-30T00:13:29;35.80;;;24.77;;
10643;SDS011;5370;50.132;8.626;2024-01-30T00:15:55;34.07;;;25.37;;
10643;SDS011;5370;50.132;8.626;2024-01-30T00:18:20;35.63;;;25.37;;
10643;SDS011;5370;50.132;8.626;2024-01-30T00:20:46;54.83;;;38.17;;
10643;SDS011;5370;50.132;8.626;2024-01-30T00:23:12;43.50;;;28.53;;
10643;SDS011;5370;50.132;8.626;2024-01-30T00:25:38;42.80;;;28.50;;
10643;SDS011;5370;50.132;8.626;2024-01-30T00:28:03;48.87;;;35.30;;
10643;SDS011;5370;50.132;8.626;2024-01-30T00:30:29;45.80;;;32.53;;
10643;SDS011;5370;50.132;8.626;2024-01-30T00:32:54;39.23;;;28.13;;
10643;SDS011;5370;50.132;8.626;2024-01-30T00:35:20;31.90;;;23.37;;
10643;SDS011;5370;50.132;8.626;2024-01-30T00:37:47;32.17;;;24.53;;
10643;SDS011;5370;50.132;8.626;2024-01-30T00:40:13;31.60;;;23.37;;
10643;SDS011;5370;50.132;8.626;2024-01-30T00:42:41;33.00;;;24.13;;
10643;SDS011;5370;50.132;8.626;2024-01-30T00:45:11;35.90;;;24.70;;
10643;SDS011;5370;50.132;8.626;2024-01-30T00:47:41;33.17;;;23.50;;
10643;SDS011;5370;50.132;8.626;2024-01-30T00:50:07;34.43;;;24.60;;
10643;SDS011;5370;50.132;8.626;2024-01-30T00:52:33;31.33;;;23.23;;
10643;SDS011;5370;50.132;8.626;2024-01-30T00:54:59;32.10;;;22.70;;
10643;SDS011;5370;50.132;8.626;2024-01-30T00:57:25;30.97;;;22.63;;
10643;SDS011;5370;50.132;8.626;2024-01-30T00:59:51;33.87;;;23.47;;
10643;SDS011;5370;50.132;8.626;2024-01-30T01:02:17;30.40;;;22.33;;
10643;SDS011;5370;50.132;8.626;2024-01-30T01:04:43;30.50;;;23.23;;
10643;SDS011;5370;50.132;8.626;2024-01-30T01:07:10;30.00;;;21.63;;
10643;SDS011;5370;50.132;8.626;2024-01-30T01:09:36;31.20;;;22.37;;
10643;SDS011;5370;50.132;8.626;2024-01-30T01:12:02;35.07;;;22.43;;
10643;SDS011;5370;50.132;8.626;2024-01-30T01:14:28;31.93;;;22.97;;
10643;SDS011;5370;50.132;8.626;2024-01-30T01:16:53;30.97;;;22.77;;
10643;SDS011;5370;50.132;8.626;2024-01-30T01:19:19;32.47;;;22.10;;
10643;SDS011;5370;50.132;8.626;2024-01-30T01:21:44;32.13;;;22.50;;
10643;SDS011;5370;50.132;8.626;2024-01-30T01:24:10;30.77;;;21.77;;
10643;SDS011;5370;50.132;8.626;2024-01-30T01:26:35;27.67;;;21.53;;
10643;SDS011;5370;50.132;8.626;2024-01-30T01:29:01;33.27;;;21.43;;
10643;SDS011;5370;50.132;8.626;2024-01-30T01:31:29;36.30;;;24.33;;
10643;SDS011;5370;50.132;8.626;2024-01-30T01:33:54;27.87;;;21.33;;
10643;SDS011;5370;50.132;8.626;2024-01-30T01:36:20;29.53;;;21.73;;
10643;SDS011;5370;50.132;8.626;2024-01-30T01:38:46;27.57;;;21.50;;
10643;SDS011;5370;50.132;8.626;2024-01-30T01:41:11;28.53;;;21.83;;
10643;SDS011;5370;50.132;8.626;2024-01-30T01:43:37;33.93;;;22.13;;
10643;SDS011;5370;50.132;8.626;2024-01-30T01:46:04;31.47;;;21.67;;
10643;SDS011;5370;50.132;8.626;2024-01-30T01:48:30;30.20;;;21.47;;
10643;SDS011;5370;50.132;8.626;2024-01-30T01:50:56;28.80;;;21.17;;
10643;SDS011;5370;50.132;8.626;2024-01-30T01:53:22;32.17;;;21.77;;
10643;SDS011;5370;50.132;8.626;2024-01-30T01:55:48;31.90;;;22.30;;
10643;SDS011;5370;50.132;8.626;2024-01-30T01:58:14;29.57;;;21.93;;
10643;SDS011;5370;50.132;8.626;2024-01-30T02:00:39;28.07;;;20.90;;
10643;SDS011;5370;50.132;8.626;2024-01-30T02:03:06;29.37;;;22.33;;
10643;SDS011;5370;50.132;8.626;2024-01-30T02:05:36;29.90;;;20.20;;
10643;SDS011;5370;50.132;8.626;2024-01-30T02:08:02;32.23;;;22.30;;
10643;SDS011;5370;50.132;8.626;2024-01-30T02:10:28;34.37;;;21.27;;
10643;SDS011;5370;50.132;8.626;2024-01-30T02:12:54;29.67;;;22.27;;
10643;SDS011;5370;50.132;8.626;2024-01-30T02:15:19;31.93;;;21.43;;
10643;SDS011;5370;50.132;8.626;2024-01-30T02:17:45;29.03;;;21.73;;
10643;SDS011;5370;50.132;8.626;2024-01-30T02:20:10;37.13;;;22.30;;
10643;SDS011;5370;50.132;8.626;2024-01-30T02:22:36;33.73;;;22.07;;
10643;SDS011;5370;50.132;8.626;2024-01-30T02:25:02;28.80;;;21.63;;
10643;SDS011;5370;50.132;8.626;2024-01-30T02:27:28;34.83;;;22.53;;
10643;SDS011;5370;50.132;8.626;2024-01-30T02:29:54;27.83;;;20.73;;
10643;SDS011;5370;50.132;8.626;2024-01-30T02:32:19;30.87;;;22.33;;
10643;SDS011;5370;50.132;8.626;2024-01-30T02:34:45;31.53;;;20.90;;
10643;SDS011;5370;50.132;8.626;2024-01-30T02:37:10;32.60;;;21.13;;
10643;SDS011;5370;50.132;8.626;2024-01-30T02:39:36;33.33;;;22.43;;
10643;SDS011;5370;50.132;8.626;2024-01-30T02:42:01;31.83;;;22.20;;
10643;SDS011;5370;50.132;8.626;2024-01-30T02:44:27;35.30;;;20.33;;
10643;SDS011;5370;50.132;8.626;2024-01-30T02:46:52;34.33;;;22.27;;
10643;SDS011;5370;50.132;8.626;2024-01-30T02:49:19;30.33;;;22.00;;
10643;SDS011;5370;50.132;8.626;2024-01-30T02:51:45;39.87;;;22.03;;
10643;SDS011;5370;50.132;8.626;2024-01-30T02:54:10;33.40;;;21.90;;
10643;SDS011;5370;50.132;8.626;2024-01-30T02:56:36;33.50;;;22.67;;
10643;SDS011;5370;50.132;8.626;2024-01-30T02:59:01;33.93;;;21.17;;
10643;SDS011;5370;50.132;8.626;2024-01-30T03:01:27;30.03;;;20.90;;
10643;SDS011;5370;50.132;8.626;2024-01-30T03:03:52;36.37;;;22.57;;
10643;SDS011;5370;50.132;8.626;2024-01-30T03:06:18;37.67;;;21.93;;
10643;SDS011;5370;50.132;8.626;2024-01-30T03:08:45;35.07;;;21.63;;
10643;SDS011;5370;50.132;8.626;2024-01-30T03:11:10;30.50;;;21.73;;
10643;SDS011;5370;50.132;8.626;2024-01-30T03:13:36;34.33;;;20.87;;
10643;SDS011;5370;50.132;8.626;2024-01-30T03:16:01;33.80;;;22.30;;
10643;SDS011;5370;50.132;8.626;2024-01-30T03:18:27;33.00;;;22.53;;
10643;SDS011;5370;50.132;8.626;2024-01-30T03:20:53;30.97;;;21.37;;
10643;SDS011;5370;50.132;8.626;2024-01-30T03:23:18;37.10;;;24.07;;
10643;SDS011;5370;50.132;8.626;2024-01-30T03:25:44;40.10;;;24.00;;
10643;SDS011;5370;50.132;8.626;2024-01-30T03:28:09;36.03;;;21.27;;
10643;SDS011;5370;50.132;8.626;2024-01-30T03:30:35;48.10;;;27.10;;
10643;SDS011;5370;50.132;8.626;2024-01-30T03:33:00;32.13;;;22.10;;
10643;SDS011;5370;50.132;8.626;2024-01-30T03:35:26;30.27;;;19.97;;
10643;SDS011;5370;50.132;8.626;2024-01-30T03:37:51;29.37;;;21.07;;
10643;SDS011;5370;50.132;8.626;2024-01-30T03:40:17;29.77;;;21.13;;
10643;SDS011;5370;50.132;8.626;2024-01-30T03:42:42;32.43;;;22.07;;
10643;SDS011;5370;50.132;8.626;2024-01-30T03:45:08;29.60;;;21.03;;
10643;SDS011;5370;50.132;8.626;2024-01-30T03:47:34;28.63;;;20.87;;
10643;SDS011;5370;50.132;8.626;2024-01-30T03:49:59;31.53;;;20.23;;
10643;SDS011;5370;50.132;8.626;2024-01-30T03:52:25;27.63;;;20.03;;
10643;SDS011;5370;50.132;8.626;2024-01-30T03:54:50;33.27;;;20.37;;
10643;SDS011;5370;50.132;8.626;2024-01-30T03:57:16;26.53;;;19.27;;
10643;SDS011;5370;50.132;8.626;2024-01-30T03:59:44;29.27;;;20.50;;
10643;SDS011;5370;50.132;8.626;2024-01-30T04:02:10;30.23;;;20.77;;
10643;SDS011;5370;50.132;8.626;2024-01-30T04:04:36;32.27;;;19.20;;
10643;SDS011;5370;50.132;8.626;2024-01-30T04:07:02;26.53;;;19.60;;
10643;SDS011;5370;50.132;8.626;2024-01-30T04:09:28;25.23;;;20.03;;
10643;SDS011;5370;50.132;8.626;2024-01-30T04:11:53;27.37;;;19.57;;
10643;SDS011;5370;50.132;8.626;2024-01-30T04:14:19;28.70;;;19.90;;
10643;SDS011;5370;50.132;8.626;2024-01-30T04:16:44;28.00;;;20.17;;
10643;SDS011;5370;50.132;8.626;2024-01-30T04:19:10;26.83;;;19.83;;
10643;SDS011;5370;50.132;8.626;2024-01-30T04:21:35;28.83;;;20.87;;
10643;SDS011;5370;50.132;8.626;2024-01-30T04:24:01;29.83;;;19.57;;
10643;SDS011;5370;50.132;8.626;2024-01-30T04:26:26;25.27;;;19.50;;
10643;SDS011;5370;50.132;8.626;2024-01-30T04:28:52;27.50;;;18.37;;
10643;SDS011;5370;50.132;8.626;2024-01-30T04:31:18;31.10;;;20.07;;
10643;SDS011;5370;50.132;8.626;2024-01-30T04:33:43;25.03;;;19.30;;
10643;SDS011;5370;50.132;8.626;2024-01-30T04:36:09;24.40;;;18.90;;
10643;SDS011;5370;50.132;8.626;2024-01-30T04:38:38;26.33;;;19.43;;
10643;SDS011;5370;50.132;8.626;2024-01-30T04:41:04;24.57;;;19.37;;
10643;SDS011;5370;50.132;8.626;2024-01-30T04:43:29;25.83;;;19.00;;
10643;SDS011;5370;50.132;8.626;2024-01-30T04:45:55;26.33;;;19.00;;
10643;SDS011;5370;50.132;8.626;2024-01-30T04:48:21;28.27;;;20.00;;
10643;SDS011;5370;50.132;8.626;2024-01-30T04:50:46;25.93;;;19.27;;
10643;SDS011;5370;50.132;8.626;2024-01-30T04:53:12;24.93;;;19.60;;
10643;SDS011;5370;50.132;8.626;2024-01-30T04:55:37;25.20;;;18.83;;
10643;SDS011;5370;50.132;8.626;2024-01-30T04:58:03;28.73;;;19.47;;
10643;SDS011;5370;50.132;8.626;2024-01-30T05:00:29;26.57;;;18.63;;
10643;SDS011;5370;50.132;8.626;2024-01-30T05:02:55;26.87;;;19.57;;
10643;SDS011;5370;50.132;8.626;2024-01-30T05:05:21;24.27;;;18.17;;
10643;SDS011;5370;50.132;8.626;2024-01-30T05:07:47;23.27;;;18.20;;
10643;SDS011;5370;50.132;8.626;2024-01-30T05:10:12;26.80;;;18.60;;
10643;SDS011;5370;50.132;8.626;2024-01-30T05:12:38;27.63;;;18.83;;
10643;SDS011;5370;50.132;8.626;2024-01-30T05:15:04;26.37;;;18.73;;
10643;SDS011;5370;50.132;8.626;2024-01-30T05:17:30;26.43;;;18.80;;
10643;SDS011;5370;50.132;8.626;2024-01-30T05:19:56;26.23;;;18.87;;
10643;SDS011;5370;50.132;8.626;2024-01-30T05:22:21;27.47;;;18.87;;
10643;SDS011;5370;50.132;8.626;2024-01-30T05:24:47;44.47;;;29.77;;
10643;SDS011;5370;50.132;8.626;2024-01-30T05:27:12;29.07;;;18.83;;
10643;SDS011;5370;50.132;8.626;2024-01-30T05:29:41;22.67;;;18.33;;
10643;SDS011;5370;50.132;8.626;2024-01-30T05:32:06;26.50;;;18.83;;
10643;SDS011;5370;50.132;8.626;2024-01-30T05:34:32;26.20;;;19.07;;
10643;SDS011;5370;50.132;8.626;2024-01-30T05:36:57;30.33;;;21.07;;
10643;SDS011;5370;50.132;8.626;2024-01-30T05:39:23;29.60;;;21.63;;
10643;SDS011;5370;50.132;8.626;2024-01-30T05:41:49;24.83;;;19.03;;
10643;SDS011;5370;50.132;8.626;2024-01-30T05:44:14;25.53;;;19.37;;
10643;SDS011;5370;50.132;8.626;2024-01-30T05:46:40;26.23;;;18.47;;
10643;SDS011;5370;50.132;8.626;2024-01-30T05:49:05;28.07;;;19.23;;
10643;SDS011;5370;50.132;8.626;2024-01-30T05:51:31;31.23;;;20.27;;
10643;SDS011;5370;50.132;8.626;2024-01-30T05:53:56;28.57;;;21.23;;
10643;SDS011;5370;50.132;8.626;2024-01-30T05:56:22;34.77;;;20.33;;
10643;SDS011;5370;50.132;8.626;2024-01-30T05:58:47;27.67;;;19.87;;
10643;SDS011;5370;50.132;8.626;2024-01-30T06:01:15;26.60;;;20.43;;
10643;SDS011;5370;50.132;8.626;2024-01-30T06:03:41;29.73;;;21.13;;
10643;SDS011;5370;50.132;8.626;2024-01-30T06:06:08;29.83;;;19.77;;
10643;SDS011;5370;50.132;8.626;2024-01-30T06:08:34;27.33;;;20.77;;
10643;SDS011;5370;50.132;8.626;2024-01-30T06:10:59;26.60;;;21.00;;
10643;SDS011;5370;50.132;8.626;2024-01-30T06:13:25;27.20;;;20.10;;
10643;SDS011;5370;50.132;8.626;2024-01-30T06:15:51;27.63;;;19.57;;
10643;SDS011;5370;50.132;8.626;2024-01-30T06:18:17;28.77;;;20.07;;
10643;SDS011;5370;50.132;8.626;2024-01-30T06:20:42;27.00;;;19.17;;
10643;SDS011;5370;50.132;8.626;2024-01-30T06:23:08;24.20;;;18.40;;
10643;SDS011;5370;50.132;8.626;2024-01-30T06:25:34;30.07;;;19.17;;
10643;SDS011;5370;50.132;8.626;2024-01-30T06:27:59;36.93;;;20.37;;
10643;SDS011;5370;50.132;8.626;2024-01-30T06:30:25;27.23;;;19.23;;
10643;SDS011;5370;50.132;8.626;2024-01-30T06:32:50;30.47;;;20.60;;
10643;SDS011;5370;50.132;8.626;2024-01-30T06:35:16;29.07;;;19.27;;
10643;SDS011;5370;50.132;8.626;2024-01-30T06:37:42;32.97;;;19.60;;
10643;SDS011;5370;50.132;8.626;2024-01-30T06:40:08;38.07;;;20.30;;
10643;SDS011;5370;50.132;8.626;2024-01-30T06:42:34;25.67;;;19.43;;
10643;SDS011;5370;50.132;8.626;2024-01-30T06:44:59;31.57;;;20.23;;
10643;SDS011;5370;50.132;8.626;2024-01-30T06:47:25;32.53;;;20.60;;
10643;SDS011;5370;50.132;8.626;2024-01-30T06:49:50;33.47;;;21.00;;
10643;SDS011;5370;50.132;8.626;2024-01-30T06:52:16;28.67;;;20.03;;
10643;SDS011;5370;50.132;8.626;2024-01-30T06:54:41;30.47;;;19.90;;
10643;SDS011;5370;50.132;8.626;2024-01-30T06:57:07;37.17;;;19.73;;
10643;SDS011;5370;50.132;8.626;2024-01-30T06:59:37;28.13;;;19.50;;
10643;SDS011;5370;50.132;8.626;2024-01-30T07:02:08;29.20;;;20.17;;
10643;SDS011;5370;50.132;8.626;2024-01-30T07:04:34;26.93;;;19.03;;
10643;SDS011;5370;50.132;8.626;2024-01-30T07:06:59;28.03;;;20.00;;
10643;SDS011;5370;50.132;8.626;2024-01-30T07:09:25;26.57;;;19.50;;
10643;SDS011;5370;50.132;8.626;2024-01-30T07:11:50;27.33;;;18.33;;
10643;SDS011;5370;50.132;8.626;2024-01-30T07:14:16;29.47;;;19.70;;
10643;SDS011;5370;50.132;8.626;2024-01-30T07:16:42;27.97;;;20.27;;
10643;SDS011;5370;50.132;8.626;2024-01-30T07:19:08;30.47;;;20.87;;
10643;SDS011;5370;50.132;8.626;2024-01-30T07:21:34;28.63;;;20.93;;
10643;SDS011;5370;50.132;8.626;2024-01-30T07:24:00;26.07;;;19.40;;
10643;SDS011;5370;50.132;8.626;2024-01-30T07:26:25;28.17;;;19.60;;
10643;SDS011;5370;50.132;8.626;2024-01-30T07:28:50;27.23;;;19.87;;
10643;SDS011;5370;50.132;8.626;2024-01-30T07:31:16;26.50;;;20.60;;
10643;SDS011;5370;50.132;8.626;2024-01-30T07:33:42;27.93;;;19.93;;
10643;SDS011;5370;50.132;8.626;2024-01-30T07:36:07;27.03;;;19.57;;
10643;SDS011;5370;50.132;8.626;2024-01-30T07:38:33;28.87;;;20.37;;
10643;SDS011;5370;50.132;8.626;2024-01-30T07:40:59;28.47;;;18.97;;
10643;SDS011;5370;50.132;8.626;2024-01-30T07:43:25;31.13;;;21.90;;
10643;SDS011;5370;50.132;8.626;2024-01-30T07:45:50;30.97;;;21.13;;
10643;SDS011;5370;50.132;8.626;2024-01-30T07:48:16;25.13;;;18.57;;
10643;SDS011;5370;50.132;8.626;2024-01-30T07:50:42;26.00;;;18.63;;
10643;SDS011;5370;50.132;8.626;2024-01-30T07:53:07;27.47;;;18.93;;
10643;SDS011;5370;50.132;8.626;2024-01-30T07:55:33;25.97;;;18.00;;
10643;SDS011;5370;50.132;8.626;2024-01-30T07:57:58;27.03;;;18.77;;
10643;SDS011;5370;50.132;8.626;2024-01-30T08:00:25;26.33;;;18.47;;
10643;SDS011;5370;50.132;8.626;2024-01-30T08:02:50;23.77;;;18.03;;
10643;SDS011;5370;50.132;8.626;2024-01-30T08:05:19;26.97;;;18.20;;
10643;SDS011;5370;50.132;8.626;2024-01-30T08:07:44;24.33;;;17.40;;
10643;SDS011;5370;50.132;8.626;2024-01-30T08:10:11;46.30;;;31.17;;
10643;SDS011;5370;50.132;8.626;2024-01-30T08:12:37;48.60;;;32.80;;
10643;SDS011;5370;50.132;8.626;2024-01-30T08:15:04;34.43;;;24.83;;
10643;SDS011;5370;50.132;8.626;2024-01-30T08:17:30;32.80;;;23.40;;
10643;SDS011;5370;50.132;8.626;2024-01-30T08:19:56;31.60;;;21.87;;
10643;SDS011;5370;50.132;8.626;2024-01-30T08:22:21;35.33;;;23.07;;
10643;SDS011;5370;50.132;8.626;2024-01-30T08:24:47;26.23;;;18.73;;
10643;SDS011;5370;50.132;8.626;2024-01-30T08:27:12;27.27;;;17.30;;
10643;SDS011;5370;50.132;8.626;2024-01-30T08:29:38;21.97;;;16.27;;
10643;SDS011;5370;50.132;8.626;2024-01-30T08:32:04;24.67;;;17.23;;
10643;SDS011;5370;50.132;8.626;2024-01-30T08:34:33;25.73;;;16.27;;
10643;SDS011;5370;50.132;8.626;2024-01-30T08:36:58;25.17;;;16.23;;
10643;SDS011;5370;50.132;8.626;2024-01-30T08:39:24;26.90;;;16.17;;
10643;SDS011;5370;50.132;8.626;2024-01-30T08:41:50;24.67;;;15.63;;
10643;SDS011;5370;50.132;8.626;2024-01-30T08:44:15;22.87;;;15.47;;
10643;SDS011;5370;50.132;8.626;2024-01-30T08:46:42;24.63;;;15.97;;
10643;SDS011;5370;50.132;8.626;2024-01-30T08:49:09;20.93;;;14.63;;
10643;SDS011;5370;50.132;8.626;2024-01-30T08:51:35;23.80;;;16.40;;
10643;SDS011;5370;50.132;8.626;2024-01-30T08:54:00;26.83;;;15.77;;
10643;SDS011;5370;50.132;8.626;2024-01-30T08:56:26;24.07;;;17.07;;
10643;SDS011;5370;50.132;8.626;2024-01-30T08:58:52;25.00;;;16.07;;
10643;SDS011;5370;50.132;8.626;2024-01-30T09:01:18;21.83;;;15.73;;
10643;SDS011;5370;50.132;8.626;2024-01-30T09:03:43;26.67;;;16.47;;
10643;SDS011;5370;50.132;8.626;2024-01-30T09:06:11;21.73;;;15.93;;
10643;SDS011;5370;50.132;8.626;2024-01-30T09:08:37;26.10;;;16.73;;
10643;SDS011;5370;50.132;8.626;2024-01-30T09:11:09;23.00;;;16.40;;
10643;SDS011;5370;50.132;8.626;2024-01-30T09:13:38;21.67;;;14.87;;
10643;SDS011;5370;50.132;8.626;2024-01-30T09:16:04;25.17;;;15.40;;
10643;SDS011;5370;50.132;8.626;2024-01-30T09:18:30;21.03;;;15.13;;
10643;SDS011;5370;50.132;8.626;2024-01-30T09:20:55;22.27;;;15.80;;
10643;SDS011;5370;50.132;8.626;2024-01-30T09:23:21;21.80;;;14.47;;
10643;SDS011;5370;50.132;8.626;2024-01-30T09:25:47;24.77;;;15.13;;
10643;SDS011;5370;50.132;8.626;2024-01-30T09:28:12;21.20;;;14.40;;
10643;SDS011;5370;50.132;8.626;2024-01-30T09:30:38;24.93;;;14.17;;
10643;SDS011;5370;50.132;8.626;2024-01-30T09:33:04;23.73;;;16.00;;
10643;SDS011;5370;50.132;8.626;2024-01-30T09:35:30;19.13;;;14.67;;
10643;SDS011;5370;50.132;8.626;2024-01-30T09:37:55;19.63;;;13.77;;
10643;SDS011;5370;50.132;8.626;2024-01-30T09:40:22;20.37;;;15.20;;
10643;SDS011;5370;50.132;8.626;2024-01-30T09:42:48;20.73;;;14.63;;
10643;SDS011;5370;50.132;8.626;2024-01-30T09:45:15;21.53;;;14.97;;
10643;SDS011;5370;50.132;8.626;2024-01-30T09:47:43;21.97;;;14.80;;
10643;SDS011;5370;50.132;8.626;2024-01-30T09:50:13;21.60;;;14.77;;
10643;SDS011;5370;50.132;8.626;2024-01-30T09:52:40;21.80;;;14.77;;
10643;SDS011;5370;50.132;8.626;2024-01-30T09:55:06;20.80;;;15.83;;
10643;SDS011;5370;50.132;8.626;2024-01-30T09:57:32;22.47;;;14.93;;
10643;SDS011;5370;50.132;8.626;2024-01-30T09:59:59;19.00;;;15.23;;
10643;SDS011;5370;50.132;8.626;2024-01-30T10:02:24;20.50;;;15.50;;
10643;SDS011;5370;50.132;8.626;2024-01-30T10:04:51;23.47;;;16.00;;
10643;SDS011;5370;50.132;8.626;2024-01-30T10:07:19;22.43;;;16.23;;
10643;SDS011;5370;50.132;8.626;2024-01-30T10:09:46;21.37;;;14.67;;
10643;SDS011;5370;50.132;8.626;2024-01-30T10:12:12;20.43;;;14.83;;
10643;SDS011;5370;50.132;8.626;2024-01-30T10:14:41;21.43;;;15.13;;
10643;SDS011;5370;50.132;8.626;2024-01-30T10:17:07;19.57;;;15.20;;
10643;SDS011;5370;50.132;8.626;2024-01-30T10:19:33;18.53;;;14.57;;
10643;SDS011;5370;50.132;8.626;2024-01-30T10:22:03;19.47;;;14.50;;
10643;SDS011;5370;50.132;8.626;2024-01-30T10:24:29;24.70;;;14.63;;
10643;SDS011;5370;50.132;8.626;2024-01-30T10:26:55;15.13;;;13.27;;
10643;SDS011;5370;50.132;8.626;2024-01-30T10:29:20;23.57;;;15.20;;
10643;SDS011;5370;50.132;8.626;2024-01-30T10:31:56;20.60;;;15.23;;
10643;SDS011;5370;50.132;8.626;2024-01-30T10:34:26;18.20;;;15.20;;
10643;SDS011;5370;50.132;8.626;2024-01-30T10:36:55;19.30;;;15.03;;
10643;SDS011;5370;50.132;8.626;2024-01-30T10:39:43;22.63;;;14.93;;
10643;SDS011;5370;50.132;8.626;2024-01-30T10:42:13;18.50;;;13.70;;
10643;SDS011;5370;50.132;8.626;2024-01-30T10:45:25;21.20;;;14.63;;
10643;SDS011;5370;50.132;8.626;2024-01-30T10:47:34;18.83;;;14.50;;
10643;SDS011;5370;50.132;8.626;2024-01-30T10:50:03;19.20;;;15.10;;
10643;SDS011;5370;50.132;8.626;2024-01-30T10:52:29;19.67;;;14.63;;
10643;SDS011;5370;50.132;8.626;2024-01-30T10:54:57;19.30;;;14.83;;
10643;SDS011;5370;50.132;8.626;2024-01-30T10:57:24;23.43;;;15.03;;
10643;SDS011;5370;50.132;8.626;2024-01-30T10:59:51;22.27;;;16.00;;
10643;SDS011;5370;50.132;8.626;2024-01-30T11:02:20;20.60;;;14.47;;
10643;SDS011;5370;50.132;8.626;2024-01-30T11:04:46;18.93;;;13.60;;
10643;SDS011;5370;50.132;8.626;2024-01-30T11:07:23;18.53;;;14.37;;
10643;SDS011;5370;50.132;8.626;2024-01-30T11:09:53;18.13;;;14.63;;
10643;SDS011;5370;50.132;8.626;2024-01-30T11:12:28;18.10;;;14.23;;
10643;SDS011;5370;50.132;8.626;2024-01-30T11:20:21;20.07;;;15.10;;
10643;SDS011;5370;50.132;8.626;2024-01-30T11:22:53;18.77;;;14.23;;
10643;SDS011;5370;50.132;8.626;2024-01-30T11:25:21;22.90;;;13.90;;
10643;SDS011;5370;50.132;8.626;2024-01-30T11:27:55;20.30;;;14.47;;
10643;SDS011;5370;50.132;8.626;2024-01-30T11:30:30;19.53;;;14.37;;
10643;SDS011;5370;50.132;8.626;2024-01-30T11:33:04;18.87;;;14.23;;
10643;SDS011;5370;50.132;8.626;2024-01-30T11:35:30;23.17;;;13.93;;
10643;SDS011;5370;50.132;8.626;2024-01-30T11:38:04;16.23;;;13.47;;
10643;SDS011;5370;50.132;8.626;2024-01-30T11:40:31;18.63;;;15.00;;
10643;SDS011;5370;50.132;8.626;2024-01-30T11:42:58;22.40;;;14.13;;
10643;SDS011;5370;50.132;8.626;2024-01-30T11:45:28;21.37;;;14.13;;
10643;SDS011;5370;50.132;8.626;2024-01-30T11:47:54;19.07;;;14.50;;
10643;SDS011;5370;50.132;8.626;2024-01-30T11:50:20;20.27;;;14.23;;
10643;SDS011;5370;50.132;8.626;2024-01-30T11:52:45;23.13;;;13.57;;
10643;SDS011;5370;50.132;8.626;2024-01-30T11:55:12;19.43;;;13.33;;
10643;SDS011;5370;50.132;8.626;2024-01-30T11:57:39;19.07;;;13.67;;
10643;SDS011;5370;50.132;8.626;2024-01-30T12:00:05;16.73;;;13.90;;
10643;SDS011;5370;50.132;8.626;2024-01-30T12:02:38;19.50;;;13.67;;
10643;SDS011;5370;50.132;8.626;2024-01-30T12:05:06;19.43;;;13.50;;
10643;SDS011;5370;50.132;8.626;2024-01-30T12:07:32;18.50;;;13.47;;
10643;SDS011;5370;50.132;8.626;2024-01-30T12:09:59;17.77;;;12.83;;
10643;SDS011;5370;50.132;8.626;2024-01-30T12:12:25;19.30;;;13.60;;
10643;SDS011;5370;50.132;8.626;2024-01-30T12:14:51;17.13;;;13.17;;
10643;SDS011;5370;50.132;8.626;2024-01-30T12:17:50;18.07;;;13.37;;
10643;SDS011;5370;50.132;8.626;2024-01-30T12:20:10;17.23;;;13.43;;
10643;SDS011;5370;50.132;8.626;2024-01-30T12:22:37;19.80;;;13.53;;
10643;SDS011;5370;50.132;8.626;2024-01-30T12:25:07;16.07;;;12.83;;
10643;SDS011;5370;50.132;8.626;2024-01-30T12:27:33;17.27;;;13.70;;
10643;SDS011;5370;50.132;8.626;2024-01-30T12:29:59;18.87;;;13.50;;
10643;SDS011;5370;50.132;8.626;2024-01-30T12:32:25;18.13;;;13.13;;
10643;SDS011;5370;50.132;8.626;2024-01-30T12:34:50;16.63;;;12.43;;
10643;SDS011;5370;50.132;8.626;2024-01-30T12:37:19;20.67;;;13.90;;
10643;SDS011;5370;50.132;8.626;2024-01-30T12:39:47;17.20;;;13.13;;
10643;SDS011;5370;50.132;8.626;2024-01-30T12:42:13;19.90;;;13.10;;
10643;SDS011;5370;50.132;8.626;2024-01-30T12:44:39;17.40;;;13.40;;
10643;SDS011;5370;50.132;8.626;2024-01-30T12:47:05;16.13;;;13.23;;
10643;SDS011;5370;50.132;8.626;2024-01-30T12:49:33;19.10;;;12.83;;
10643;SDS011;5370;50.132;8.626;2024-01-30T12:51:59;23.93;;;15.03;;
10643;SDS011;5370;50.132;8.626;2024-01-30T12:54:24;20.37;;;13.73;;
10643;SDS011;5370;50.132;8.626;2024-01-30T12:56:50;17.77;;;14.07;;
10643;SDS011;5370;50.132;8.626;2024-01-30T12:59:15;18.53;;;13.97;;
10643;SDS011;5370;50.132;8.626;2024-01-30T13:01:41;20.70;;;13.90;;
10643;SDS011;5370;50.132;8.626;2024-01-30T13:04:06;16.13;;;13.00;;
10643;SDS011;5370;50.132;8.626;2024-01-30T13:06:32;15.17;;;12.70;;
10643;SDS011;5370;50.132;8.626;2024-01-30T13:08:57;18.87;;;13.07;;
10643;SDS011;5370;50.132;8.626;2024-01-30T13:11:23;18.90;;;12.73;;
10643;SDS011;5370;50.132;8.626;2024-01-30T13:13:50;16.80;;;12.60;;
10643;SDS011;5370;50.132;8.626;2024-01-30T13:16:16;20.80;;;13.60;;
10643;SDS011;5370;50.132;8.626;2024-01-30T13:18:42;18.73;;;12.10;;
10643;SDS011;5370;50.132;8.626;2024-01-30T13:21:07;15.60;;;11.63;;
10643;SDS011;5370;50.132;8.626;2024-01-30T13:23:33;24.40;;;12.70;;
10643;SDS011;5370;50.132;8.626;2024-01-30T13:25:59;18.17;;;11.17;;
10643;SDS011;5370;50.132;8.626;2024-01-30T13:28:24;17.20;;;12.50;;
10643;SDS011;5370;50.132;8.626;2024-01-30T13:30:50;14.13;;;12.40;;
10643;SDS011;5370;50.132;8.626;2024-01-30T13:33:16;21.50;;;12.90;;
10643;SDS011;5370;50.132;8.626;2024-01-30T13:35:42;18.00;;;12.27;;
10643;SDS011;5370;50.132;8.626;2024-01-30T13:38:08;19.40;;;12.93;;
10643;SDS011;5370;50.132;8.626;2024-01-30T13:40:33;19.17;;;12.77;;
10643;SDS011;5370;50.132;8.626;2024-01-30T13:42:59;18.63;;;12.67;;
10643;SDS011;5370;50.132;8.626;2024-01-30T13:45:24;18.30;;;13.33;;
10643;SDS011;5370;50.132;8.626;2024-01-30T13:47:50;17.67;;;13.10;;
10643;SDS011;5370;50.132;8.626;2024-01-30T13:50:15;19.97;;;13.13;;
10643;SDS011;5370;50.132;8.626;2024-01-30T13:52:42;19.03;;;12.83;;
10643;SDS011;5370;50.132;8.626;2024-01-30T13:55:08;19.90;;;12.90;;
10643;SDS011;5370;50.132;8.626;2024-01-30T13:57:34;18.27;;;13.07;;
10643;SDS011;5370;50.132;8.626;2024-01-30T14:00:01;21.13;;;13.40;;
10643;SDS011;5370;50.132;8.626;2024-01-30T14:02:30;18.00;;;12.67;;
10643;SDS011;5370;50.132;8.626;2024-01-30T14:04:56;19.40;;;15.30;;
10643;SDS011;5370;50.132;8.626;2024-01-30T14:07:21;22.43;;;13.50;;
10643;SDS011;5370;50.132;8.626;2024-01-30T14:09:47;15.77;;;13.63;;
10643;SDS011;5370;50.132;8.626;2024-01-30T14:12:13;17.37;;;13.30;;
10643;SDS011;5370;50.132;8.626;2024-01-30T14:14:39;15.40;;;13.03;;
10643;SDS011;5370;50.132;8.626;2024-01-30T14:17:05;18.27;;;14.03;;
10643;SDS011;5370;50.132;8.626;2024-01-30T14:19:34;18.17;;;13.93;;
10643;SDS011;5370;50.132;8.626;2024-01-30T14:22:01;31.87;;;14.07;;
10643;SDS011;5370;50.132;8.626;2024-01-30T14:24:27;14.57;;;12.67;;
10643;SDS011;5370;50.132;8.626;2024-01-30T14:26:52;20.43;;;13.53;;
10643;SDS011;5370;50.132;8.626;2024-01-30T14:29:18;18.43;;;14.20;;
10643;SDS011;5370;50.132;8.626;2024-01-30T14:31:44;26.63;;;14.77;;
10643;SDS011;5370;50.132;8.626;2024-01-30T14:34:09;22.40;;;15.13;;